Terminal Aerodrome Forecast
Issued by NWS

Home | Current Version | Previous Version | Text Only | Print | Product List | Glossary On
Versions: 1 2 3 4 5 6 7 8 9 10 11 12 13 14
000
FTUS41 KLWX 011900 AAB
TAFMTN
TAF AMD
KMTN 011947Z 0120/0218 15004KT P6SM OVC050
     FM020000 14006KT P6SM OVC025
     FM020200 12006KT 4SM FZRA OVC025
     FM020500 13005KT 1 1/2SM RA OVC050
     FM020800 13005KT 1SM -RA OVC008 WS020/19035KT
     FM021000 14007KT 1SM -RA OVC008
     FM021600 26011KT 1SM -RA OVC015
     FM021700 27013KT P6SM OVC015=

USA.gov is the U.S. government's official web portal to all federal, state and local government web resources and services.